sensor_id;sensor_type;location;lat;lon;timestamp;P1;durP1;ratioP1;P2;durP2;ratioP2
11761;SDS011;5938;47.098;15.474;2022-09-25T00:03:52;14.63;;;11.23;;
11761;SDS011;5938;47.098;15.474;2022-09-25T00:07:56;10.10;;;8.97;;
11761;SDS011;5938;47.098;15.474;2022-09-25T00:11:59;11.20;;;10.10;;
11761;SDS011;5938;47.098;15.474;2022-09-25T00:16:03;11.37;;;9.90;;
11761;SDS011;5938;47.098;15.474;2022-09-25T00:20:09;11.77;;;10.60;;
11761;SDS011;5938;47.098;15.474;2022-09-25T00:24:12;14.10;;;9.80;;
11761;SDS011;5938;47.098;15.474;2022-09-25T00:28:16;11.10;;;10.07;;
11761;SDS011;5938;47.098;15.474;2022-09-25T00:32:19;11.20;;;10.00;;
11761;SDS011;5938;47.098;15.474;2022-09-25T00:36:24;11.63;;;10.53;;
11761;SDS011;5938;47.098;15.474;2022-09-25T00:40:28;10.17;;;9.27;;
11761;SDS011;5938;47.098;15.474;2022-09-25T00:49:02;11.70;;;10.60;;
11761;SDS011;5938;47.098;15.474;2022-09-25T00:53:10;16.40;;;11.80;;
11761;SDS011;5938;47.098;15.474;2022-09-25T00:57:18;10.40;;;9.20;;
11761;SDS011;5938;47.098;15.474;2022-09-25T01:01:23;13.43;;;11.40;;
11761;SDS011;5938;47.098;15.474;2022-09-25T01:05:28;12.13;;;11.03;;
11761;SDS011;5938;47.098;15.474;2022-09-25T01:09:36;11.60;;;10.40;;
11761;SDS011;5938;47.098;15.474;2022-09-25T01:13:39;13.20;;;10.80;;
11761;SDS011;5938;47.098;15.474;2022-09-25T01:17:44;10.77;;;9.77;;
11761;SDS011;5938;47.098;15.474;2022-09-25T01:21:57;11.93;;;10.83;;
11761;SDS011;5938;47.098;15.474;2022-09-25T01:26:17;12.47;;;10.17;;
11761;SDS011;5938;47.098;15.474;2022-09-25T01:30:35;11.83;;;10.60;;
11761;SDS011;5938;47.098;15.474;2022-09-25T01:34:47;13.50;;;12.10;;
11761;SDS011;5938;47.098;15.474;2022-09-25T01:38:56;15.53;;;10.27;;
11761;SDS011;5938;47.098;15.474;2022-09-25T01:43:06;12.23;;;11.03;;
11761;SDS011;5938;47.098;15.474;2022-09-25T01:47:16;11.87;;;10.37;;
11761;SDS011;5938;47.098;15.474;2022-09-25T01:51:26;14.37;;;11.20;;
11761;SDS011;5938;47.098;15.474;2022-09-25T01:55:41;10.87;;;9.77;;
11761;SDS011;5938;47.098;15.474;2022-09-25T01:59:51;12.67;;;11.37;;
11761;SDS011;5938;47.098;15.474;2022-09-25T02:04:02;12.13;;;10.67;;
11761;SDS011;5938;47.098;15.474;2022-09-25T02:08:16;12.40;;;10.70;;
11761;SDS011;5938;47.098;15.474;2022-09-25T02:12:25;11.87;;;10.53;;
11761;SDS011;5938;47.098;15.474;2022-09-25T02:16:36;13.53;;;11.20;;
11761;SDS011;5938;47.098;15.474;2022-09-25T02:20:46;11.53;;;10.40;;
11761;SDS011;5938;47.098;15.474;2022-09-25T02:24:54;10.50;;;9.50;;
11761;SDS011;5938;47.098;15.474;2022-09-25T02:29:02;11.57;;;10.43;;
11761;SDS011;5938;47.098;15.474;2022-09-25T02:33:06;12.07;;;10.87;;
11761;SDS011;5938;47.098;15.474;2022-09-25T02:37:12;11.47;;;10.37;;
11761;SDS011;5938;47.098;15.474;2022-09-25T02:41:18;11.07;;;9.97;;
11761;SDS011;5938;47.098;15.474;2022-09-25T02:45:32;11.27;;;9.90;;
11761;SDS011;5938;47.098;15.474;2022-09-25T02:49:46;11.30;;;10.20;;
11761;SDS011;5938;47.098;15.474;2022-09-25T02:53:58;10.53;;;9.53;;
11761;SDS011;5938;47.098;15.474;2022-09-25T02:58:10;11.60;;;10.50;;
11761;SDS011;5938;47.098;15.474;2022-09-25T03:02:17;13.40;;;10.63;;
11761;SDS011;5938;47.098;15.474;2022-09-25T03:06:22;11.53;;;10.33;;
11761;SDS011;5938;47.098;15.474;2022-09-25T03:10:28;11.50;;;10.37;;
11761;SDS011;5938;47.098;15.474;2022-09-25T03:14:35;11.37;;;10.27;;
11761;SDS011;5938;47.098;15.474;2022-09-25T03:18:38;12.20;;;11.00;;
11761;SDS011;5938;47.098;15.474;2022-09-25T03:22:42;11.80;;;10.70;;
11761;SDS011;5938;47.098;15.474;2022-09-25T03:26:53;12.47;;;11.27;;
11761;SDS011;5938;47.098;15.474;2022-09-25T03:30:58;11.10;;;10.10;;
11761;SDS011;5938;47.098;15.474;2022-09-25T03:35:04;11.80;;;10.67;;
11761;SDS011;5938;47.098;15.474;2022-09-25T03:39:08;12.77;;;11.60;;
11761;SDS011;5938;47.098;15.474;2022-09-25T03:43:13;13.57;;;12.17;;
11761;SDS011;5938;47.098;15.474;2022-09-25T03:47:17;12.23;;;11.17;;
11761;SDS011;5938;47.098;15.474;2022-09-25T03:51:20;12.93;;;11.70;;
11761;SDS011;5938;47.098;15.474;2022-09-25T03:55:24;12.50;;;11.40;;
11761;SDS011;5938;47.098;15.474;2022-09-25T03:59:28;14.13;;;12.30;;
11761;SDS011;5938;47.098;15.474;2022-09-25T04:03:32;12.20;;;11.10;;
11761;SDS011;5938;47.098;15.474;2022-09-25T04:07:36;13.67;;;12.30;;
11761;SDS011;5938;47.098;15.474;2022-09-25T04:11:39;12.23;;;11.03;;
11761;SDS011;5938;47.098;15.474;2022-09-25T04:15:45;13.07;;;11.70;;
11761;SDS011;5938;47.098;15.474;2022-09-25T04:19:48;11.87;;;10.83;;
11761;SDS011;5938;47.098;15.474;2022-09-25T04:23:52;13.17;;;11.87;;
11761;SDS011;5938;47.098;15.474;2022-09-25T04:28:13;12.63;;;11.33;;
11761;SDS011;5938;47.098;15.474;2022-09-25T04:32:18;12.50;;;11.20;;
11761;SDS011;5938;47.098;15.474;2022-09-25T04:36:39;12.57;;;11.47;;
11761;SDS011;5938;47.098;15.474;2022-09-25T04:40:42;12.60;;;11.40;;
11761;SDS011;5938;47.098;15.474;2022-09-25T04:44:46;13.27;;;11.97;;
11761;SDS011;5938;47.098;15.474;2022-09-25T04:48:51;12.13;;;10.93;;
11761;SDS011;5938;47.098;15.474;2022-09-25T04:52:55;12.37;;;11.17;;
11761;SDS011;5938;47.098;15.474;2022-09-25T04:56:59;13.07;;;11.90;;
11761;SDS011;5938;47.098;15.474;2022-09-25T05:01:03;19.43;;;16.57;;
11761;SDS011;5938;47.098;15.474;2022-09-25T05:05:12;12.30;;;11.13;;
11761;SDS011;5938;47.098;15.474;2022-09-25T05:09:16;18.00;;;16.20;;
11761;SDS011;5938;47.098;15.474;2022-09-25T05:13:19;14.87;;;13.50;;
11761;SDS011;5938;47.098;15.474;2022-09-25T05:17:23;15.27;;;13.80;;
11761;SDS011;5938;47.098;15.474;2022-09-25T05:21:28;14.47;;;13.17;;
11761;SDS011;5938;47.098;15.474;2022-09-25T05:25:33;14.93;;;13.50;;
11761;SDS011;5938;47.098;15.474;2022-09-25T05:29:37;13.17;;;11.90;;
11761;SDS011;5938;47.098;15.474;2022-09-25T05:33:41;15.00;;;13.40;;
11761;SDS011;5938;47.098;15.474;2022-09-25T05:37:47;17.50;;;15.77;;
11761;SDS011;5938;47.098;15.474;2022-09-25T05:41:51;23.87;;;21.37;;
11761;SDS011;5938;47.098;15.474;2022-09-25T05:45:54;19.50;;;17.57;;
11761;SDS011;5938;47.098;15.474;2022-09-25T05:49:58;24.70;;;22.37;;
11761;SDS011;5938;47.098;15.474;2022-09-25T05:54:02;44.80;;;40.33;;
11761;SDS011;5938;47.098;15.474;2022-09-25T05:58:06;28.30;;;25.50;;
11761;SDS011;5938;47.098;15.474;2022-09-25T06:02:10;25.17;;;22.63;;
11761;SDS011;5938;47.098;15.474;2022-09-25T06:06:14;17.03;;;15.53;;
11761;SDS011;5938;47.098;15.474;2022-09-25T06:10:19;18.07;;;16.33;;
11761;SDS011;5938;47.098;15.474;2022-09-25T06:14:22;40.70;;;35.03;;
11761;SDS011;5938;47.098;15.474;2022-09-25T06:18:26;26.53;;;23.73;;
11761;SDS011;5938;47.098;15.474;2022-09-25T06:22:29;26.20;;;23.60;;
11761;SDS011;5938;47.098;15.474;2022-09-25T06:26:34;24.03;;;20.70;;
11761;SDS011;5938;47.098;15.474;2022-09-25T06:30:38;21.90;;;19.70;;
11761;SDS011;5938;47.098;15.474;2022-09-25T06:34:43;21.93;;;19.77;;
11761;SDS011;5938;47.098;15.474;2022-09-25T06:38:46;21.80;;;19.60;;
11761;SDS011;5938;47.098;15.474;2022-09-25T06:42:56;18.87;;;17.00;;
11761;SDS011;5938;47.098;15.474;2022-09-25T06:47:01;23.27;;;21.07;;
11761;SDS011;5938;47.098;15.474;2022-09-25T06:51:05;18.57;;;16.87;;
11761;SDS011;5938;47.098;15.474;2022-09-25T06:55:09;18.30;;;16.13;;
11761;SDS011;5938;47.098;15.474;2022-09-25T06:59:14;20.17;;;18.30;;
11761;SDS011;5938;47.098;15.474;2022-09-25T07:03:18;20.80;;;18.73;;
11761;SDS011;5938;47.098;15.474;2022-09-25T07:07:39;21.50;;;19.30;;
11761;SDS011;5938;47.098;15.474;2022-09-25T07:11:45;18.60;;;16.80;;
11761;SDS011;5938;47.098;15.474;2022-09-25T07:15:51;25.40;;;23.00;;
11761;SDS011;5938;47.098;15.474;2022-09-25T07:19:54;22.60;;;20.40;;
11761;SDS011;5938;47.098;15.474;2022-09-25T07:23:58;21.50;;;19.40;;
11761;SDS011;5938;47.098;15.474;2022-09-25T07:28:01;22.53;;;20.20;;
11761;SDS011;5938;47.098;15.474;2022-09-25T07:32:06;38.20;;;34.20;;
11761;SDS011;5938;47.098;15.474;2022-09-25T07:36:09;26.77;;;24.03;;
11761;SDS011;5938;47.098;15.474;2022-09-25T07:40:13;18.93;;;16.97;;
11761;SDS011;5938;47.098;15.474;2022-09-25T07:44:17;19.43;;;17.57;;
11761;SDS011;5938;47.098;15.474;2022-09-25T07:48:40;19.57;;;17.73;;
11761;SDS011;5938;47.098;15.474;2022-09-25T07:52:43;17.83;;;16.00;;
11761;SDS011;5938;47.098;15.474;2022-09-25T07:56:47;19.90;;;17.30;;
11761;SDS011;5938;47.098;15.474;2022-09-25T08:00:50;18.70;;;16.90;;
11761;SDS011;5938;47.098;15.474;2022-09-25T08:04:56;17.87;;;16.17;;
11761;SDS011;5938;47.098;15.474;2022-09-25T08:09:00;18.50;;;16.70;;
11761;SDS011;5938;47.098;15.474;2022-09-25T08:13:10;20.17;;;18.27;;
11761;SDS011;5938;47.098;15.474;2022-09-25T08:17:13;18.13;;;16.37;;
11761;SDS011;5938;47.098;15.474;2022-09-25T08:21:18;19.40;;;17.23;;
11761;SDS011;5938;47.098;15.474;2022-09-25T08:25:22;20.90;;;18.70;;
11761;SDS011;5938;47.098;15.474;2022-09-25T08:29:25;21.50;;;18.10;;
11761;SDS011;5938;47.098;15.474;2022-09-25T08:33:28;22.13;;;19.90;;
11761;SDS011;5938;47.098;15.474;2022-09-25T08:37:35;19.07;;;16.87;;
11761;SDS011;5938;47.098;15.474;2022-09-25T08:41:44;21.33;;;19.30;;
11761;SDS011;5938;47.098;15.474;2022-09-25T08:45:50;21.60;;;17.70;;
11761;SDS011;5938;47.098;15.474;2022-09-25T08:50:13;51.80;;;42.50;;
11761;SDS011;5938;47.098;15.474;2022-09-25T08:54:22;70.23;;;41.97;;
11761;SDS011;5938;47.098;15.474;2022-09-25T08:58:28;46.50;;;42.07;;
11761;SDS011;5938;47.098;15.474;2022-09-25T09:02:38;24.90;;;22.30;;
11761;SDS011;5938;47.098;15.474;2022-09-25T09:06:45;23.20;;;20.80;;
11761;SDS011;5938;47.098;15.474;2022-09-25T09:11:17;18.97;;;17.27;;
11761;SDS011;5938;47.098;15.474;2022-09-25T09:15:26;19.00;;;17.00;;
11761;SDS011;5938;47.098;15.474;2022-09-25T09:19:36;25.80;;;23.10;;
11761;SDS011;5938;47.098;15.474;2022-09-25T09:23:42;19.77;;;17.80;;
11761;SDS011;5938;47.098;15.474;2022-09-25T09:28:00;21.07;;;18.90;;
11761;SDS011;5938;47.098;15.474;2022-09-25T09:33:05;18.23;;;16.47;;
11761;SDS011;5938;47.098;15.474;2022-09-25T09:37:27;21.23;;;19.03;;
11761;SDS011;5938;47.098;15.474;2022-09-25T09:41:38;19.67;;;17.87;;
11761;SDS011;5938;47.098;15.474;2022-09-25T09:45:52;17.90;;;16.20;;
11761;SDS011;5938;47.098;15.474;2022-09-25T09:50:20;21.20;;;19.37;;
11761;SDS011;5938;47.098;15.474;2022-09-25T09:54:34;19.27;;;17.37;;
11761;SDS011;5938;47.098;15.474;2022-09-25T09:58:45;17.20;;;15.57;;
11761;SDS011;5938;47.098;15.474;2022-09-25T10:03:00;15.80;;;14.37;;
11761;SDS011;5938;47.098;15.474;2022-09-25T10:07:08;14.67;;;13.47;;
11761;SDS011;5938;47.098;15.474;2022-09-25T10:11:19;14.10;;;12.80;;
11761;SDS011;5938;47.098;15.474;2022-09-25T10:15:26;14.30;;;13.10;;
11761;SDS011;5938;47.098;15.474;2022-09-25T10:19:35;12.80;;;11.70;;
11761;SDS011;5938;47.098;15.474;2022-09-25T10:23:48;12.60;;;11.60;;
11761;SDS011;5938;47.098;15.474;2022-09-25T10:27:55;10.87;;;9.90;;
11761;SDS011;5938;47.098;15.474;2022-09-25T10:31:58;10.87;;;10.00;;
11761;SDS011;5938;47.098;15.474;2022-09-25T10:36:07;11.53;;;10.53;;
11761;SDS011;5938;47.098;15.474;2022-09-25T10:40:20;10.90;;;9.90;;
11761;SDS011;5938;47.098;15.474;2022-09-25T10:44:28;11.27;;;10.37;;
11761;SDS011;5938;47.098;15.474;2022-09-25T10:48:34;12.33;;;11.20;;
11761;SDS011;5938;47.098;15.474;2022-09-25T10:52:59;9.90;;;9.00;;
11761;SDS011;5938;47.098;15.474;2022-09-25T10:57:12;9.23;;;8.33;;
11761;SDS011;5938;47.098;15.474;2022-09-25T11:01:19;9.10;;;8.30;;
11761;SDS011;5938;47.098;15.474;2022-09-25T11:05:25;8.80;;;8.07;;
11761;SDS011;5938;47.098;15.474;2022-09-25T11:09:32;9.93;;;9.07;;
11761;SDS011;5938;47.098;15.474;2022-09-25T11:13:39;9.90;;;9.00;;
11761;SDS011;5938;47.098;15.474;2022-09-25T11:17:48;8.60;;;7.90;;
11761;SDS011;5938;47.098;15.474;2022-09-25T11:22:04;9.07;;;8.17;;
11761;SDS011;5938;47.098;15.474;2022-09-25T11:26:17;24.90;;;16.60;;
11761;SDS011;5938;47.098;15.474;2022-09-25T11:30:23;16.37;;;14.23;;
11761;SDS011;5938;47.098;15.474;2022-09-25T11:34:36;10.90;;;8.97;;
11761;SDS011;5938;47.098;15.474;2022-09-25T11:38:53;9.27;;;8.40;;
11761;SDS011;5938;47.098;15.474;2022-09-25T11:43:19;10.93;;;9.77;;
11761;SDS011;5938;47.098;15.474;2022-09-25T11:47:27;9.20;;;8.30;;
11761;SDS011;5938;47.098;15.474;2022-09-25T11:56:21;14.17;;;12.80;;
11761;SDS011;5938;47.098;15.474;2022-09-25T12:00:37;8.97;;;8.27;;
11761;SDS011;5938;47.098;15.474;2022-09-25T12:04:55;8.10;;;7.47;;
11761;SDS011;5938;47.098;15.474;2022-09-25T12:09:23;11.07;;;10.07;;
11761;SDS011;5938;47.098;15.474;2022-09-25T12:13:43;10.10;;;9.10;;
11761;SDS011;5938;47.098;15.474;2022-09-25T12:17:59;8.43;;;7.73;;
11761;SDS011;5938;47.098;15.474;2022-09-25T12:22:11;9.87;;;9.17;;
11761;SDS011;5938;47.098;15.474;2022-09-25T12:26:23;10.00;;;9.20;;
11761;SDS011;5938;47.098;15.474;2022-09-25T12:30:33;8.07;;;7.37;;
11761;SDS011;5938;47.098;15.474;2022-09-25T12:34:54;7.03;;;6.43;;
11761;SDS011;5938;47.098;15.474;2022-09-25T12:39:14;6.30;;;5.80;;
11761;SDS011;5938;47.098;15.474;2022-09-25T12:43:29;6.00;;;5.50;;
11761;SDS011;5938;47.098;15.474;2022-09-25T12:47:42;7.13;;;6.53;;
11761;SDS011;5938;47.098;15.474;2022-09-25T12:51:56;7.83;;;7.10;;
11761;SDS011;5938;47.098;15.474;2022-09-25T12:56:08;8.80;;;8.00;;
11761;SDS011;5938;47.098;15.474;2022-09-25T13:00:16;8.73;;;8.00;;
11761;SDS011;5938;47.098;15.474;2022-09-25T13:09:10;6.80;;;6.30;;
11761;SDS011;5938;47.098;15.474;2022-09-25T13:13:21;7.70;;;7.00;;
11761;SDS011;5938;47.098;15.474;2022-09-25T13:17:28;7.40;;;6.73;;
11761;SDS011;5938;47.098;15.474;2022-09-25T13:21:33;6.33;;;5.83;;
11761;SDS011;5938;47.098;15.474;2022-09-25T13:25:43;7.40;;;6.87;;
11761;SDS011;5938;47.098;15.474;2022-09-25T13:29:50;10.00;;;9.20;;
11761;SDS011;5938;47.098;15.474;2022-09-25T13:34:00;8.93;;;8.20;;
11761;SDS011;5938;47.098;15.474;2022-09-25T13:38:08;6.87;;;6.37;;
11761;SDS011;5938;47.098;15.474;2022-09-25T13:42:40;6.73;;;6.23;;
11761;SDS011;5938;47.098;15.474;2022-09-25T13:46:46;8.00;;;7.40;;
11761;SDS011;5938;47.098;15.474;2022-09-25T13:51:32;8.00;;;7.40;;
11761;SDS011;5938;47.098;15.474;2022-09-25T13:55:39;8.00;;;7.37;;
11761;SDS011;5938;47.098;15.474;2022-09-25T13:59:45;8.60;;;7.80;;
11761;SDS011;5938;47.098;15.474;2022-09-25T14:04:09;9.33;;;8.50;;
11761;SDS011;5938;47.098;15.474;2022-09-25T14:08:19;9.10;;;8.27;;
11761;SDS011;5938;47.098;15.474;2022-09-25T14:12:33;8.00;;;7.30;;
11761;SDS011;5938;47.098;15.474;2022-09-25T14:16:45;7.60;;;6.90;;
11761;SDS011;5938;47.098;15.474;2022-09-25T14:20:55;7.67;;;7.07;;
11761;SDS011;5938;47.098;15.474;2022-09-25T14:25:01;6.83;;;6.23;;
11761;SDS011;5938;47.098;15.474;2022-09-25T14:29:12;7.17;;;6.57;;
11761;SDS011;5938;47.098;15.474;2022-09-25T14:33:25;6.50;;;6.03;;
11761;SDS011;5938;47.098;15.474;2022-09-25T14:37:48;6.70;;;6.20;;
11761;SDS011;5938;47.098;15.474;2022-09-25T14:42:15;7.30;;;6.70;;
11761;SDS011;5938;47.098;15.474;2022-09-25T14:46:54;7.23;;;5.87;;
11761;SDS011;5938;47.098;15.474;2022-09-25T14:51:03;6.50;;;5.90;;
11761;SDS011;5938;47.098;15.474;2022-09-25T14:55:13;6.17;;;5.50;;
11761;SDS011;5938;47.098;15.474;2022-09-25T14:59:23;5.20;;;4.80;;
11761;SDS011;5938;47.098;15.474;2022-09-25T15:03:32;6.03;;;5.53;;
11761;SDS011;5938;47.098;15.474;2022-09-25T15:07:45;8.43;;;5.60;;
11761;SDS011;5938;47.098;15.474;2022-09-25T15:11:52;9.33;;;7.47;;
11761;SDS011;5938;47.098;15.474;2022-09-25T15:15:56;9.43;;;8.40;;
11761;SDS011;5938;47.098;15.474;2022-09-25T15:20:18;9.00;;;7.90;;
11761;SDS011;5938;47.098;15.474;2022-09-25T15:24:28;12.70;;;8.77;;
11761;SDS011;5938;47.098;15.474;2022-09-25T15:28:40;6.17;;;5.57;;
11761;SDS011;5938;47.098;15.474;2022-09-25T15:32:45;5.63;;;5.17;;
11761;SDS011;5938;47.098;15.474;2022-09-25T15:37:13;5.77;;;5.27;;
11761;SDS011;5938;47.098;15.474;2022-09-25T15:41:22;5.07;;;4.67;;
11761;SDS011;5938;47.098;15.474;2022-09-25T15:45:33;4.63;;;4.23;;
11761;SDS011;5938;47.098;15.474;2022-09-25T15:49:40;6.83;;;5.10;;
11761;SDS011;5938;47.098;15.474;2022-09-25T15:53:48;5.30;;;4.80;;
11761;SDS011;5938;47.098;15.474;2022-09-25T15:58:01;6.00;;;5.50;;
11761;SDS011;5938;47.098;15.474;2022-09-25T16:02:09;5.60;;;5.10;;
11761;SDS011;5938;47.098;15.474;2022-09-25T16:06:40;5.60;;;4.93;;
11761;SDS011;5938;47.098;15.474;2022-09-25T16:10:46;6.37;;;5.83;;
11761;SDS011;5938;47.098;15.474;2022-09-25T16:14:53;5.97;;;5.40;;
11761;SDS011;5938;47.098;15.474;2022-09-25T16:18:58;6.90;;;6.30;;
11761;SDS011;5938;47.098;15.474;2022-09-25T16:23:20;6.57;;;6.07;;
11761;SDS011;5938;47.098;15.474;2022-09-25T16:27:30;7.23;;;6.53;;
11761;SDS011;5938;47.098;15.474;2022-09-25T16:31:37;6.40;;;5.90;;
11761;SDS011;5938;47.098;15.474;2022-09-25T16:35:44;8.73;;;7.23;;
11761;SDS011;5938;47.098;15.474;2022-09-25T16:40:19;6.97;;;6.37;;
11761;SDS011;5938;47.098;15.474;2022-09-25T16:44:38;8.80;;;8.10;;
11761;SDS011;5938;47.098;15.474;2022-09-25T16:48:58;11.63;;;10.63;;
11761;SDS011;5938;47.098;15.474;2022-09-25T16:53:05;18.73;;;16.93;;
11761;SDS011;5938;47.098;15.474;2022-09-25T16:57:10;42.43;;;36.40;;
11761;SDS011;5938;47.098;15.474;2022-09-25T17:01:18;9.60;;;8.70;;
11761;SDS011;5938;47.098;15.474;2022-09-25T17:05:28;9.10;;;8.30;;
11761;SDS011;5938;47.098;15.474;2022-09-25T17:09:36;9.00;;;8.20;;
11761;SDS011;5938;47.098;15.474;2022-09-25T17:13:46;8.77;;;7.90;;
11761;SDS011;5938;47.098;15.474;2022-09-25T17:17:53;9.10;;;8.30;;
11761;SDS011;5938;47.098;15.474;2022-09-25T17:22:12;8.67;;;7.87;;
11761;SDS011;5938;47.098;15.474;2022-09-25T17:26:19;8.40;;;7.50;;
11761;SDS011;5938;47.098;15.474;2022-09-25T17:30:25;9.80;;;8.80;;
11761;SDS011;5938;47.098;15.474;2022-09-25T17:34:32;10.90;;;9.90;;
11761;SDS011;5938;47.098;15.474;2022-09-25T17:38:38;12.63;;;11.50;;
11761;SDS011;5938;47.098;15.474;2022-09-25T17:42:42;20.50;;;18.47;;
11761;SDS011;5938;47.098;15.474;2022-09-25T17:46:46;13.60;;;12.30;;
11761;SDS011;5938;47.098;15.474;2022-09-25T17:50:52;17.57;;;15.80;;
11761;SDS011;5938;47.098;15.474;2022-09-25T17:55:00;13.03;;;11.80;;
11761;SDS011;5938;47.098;15.474;2022-09-25T17:59:04;14.77;;;13.30;;
11761;SDS011;5938;47.098;15.474;2022-09-25T18:03:13;20.00;;;17.83;;
11761;SDS011;5938;47.098;15.474;2022-09-25T18:07:23;20.53;;;18.33;;
11761;SDS011;5938;47.098;15.474;2022-09-25T18:11:37;14.37;;;12.97;;
11761;SDS011;5938;47.098;15.474;2022-09-25T18:15:45;12.00;;;10.70;;
11761;SDS011;5938;47.098;15.474;2022-09-25T18:19:51;13.73;;;12.33;;
11761;SDS011;5938;47.098;15.474;2022-09-25T18:24:12;12.63;;;11.10;;
11761;SDS011;5938;47.098;15.474;2022-09-25T18:28:18;23.20;;;20.00;;
11761;SDS011;5938;47.098;15.474;2022-09-25T18:32:22;19.40;;;17.40;;
11761;SDS011;5938;47.098;15.474;2022-09-25T18:36:26;16.57;;;13.63;;
11761;SDS011;5938;47.098;15.474;2022-09-25T18:40:30;12.53;;;11.20;;
11761;SDS011;5938;47.098;15.474;2022-09-25T18:44:37;12.03;;;10.93;;
11761;SDS011;5938;47.098;15.474;2022-09-25T18:48:44;14.80;;;13.30;;
11761;SDS011;5938;47.098;15.474;2022-09-25T18:52:48;13.47;;;12.20;;
11761;SDS011;5938;47.098;15.474;2022-09-25T18:56:53;12.20;;;11.10;;
11761;SDS011;5938;47.098;15.474;2022-09-25T19:01:04;14.87;;;12.63;;
11761;SDS011;5938;47.098;15.474;2022-09-25T19:05:10;14.77;;;13.07;;
11761;SDS011;5938;47.098;15.474;2022-09-25T19:09:19;14.97;;;13.37;;
11761;SDS011;5938;47.098;15.474;2022-09-25T19:13:28;14.50;;;13.03;;
11761;SDS011;5938;47.098;15.474;2022-09-25T19:17:34;16.43;;;13.93;;
11761;SDS011;5938;47.098;15.474;2022-09-25T19:21:39;18.27;;;16.37;;
11761;SDS011;5938;47.098;15.474;2022-09-25T19:25:50;16.03;;;14.27;;
11761;SDS011;5938;47.098;15.474;2022-09-25T19:29:56;19.13;;;15.93;;
11761;SDS011;5938;47.098;15.474;2022-09-25T19:34:03;28.57;;;19.03;;
11761;SDS011;5938;47.098;15.474;2022-09-25T19:38:09;25.07;;;17.30;;
11761;SDS011;5938;47.098;15.474;2022-09-25T19:42:15;40.60;;;25.83;;
11761;SDS011;5938;47.098;15.474;2022-09-25T19:46:20;40.50;;;24.67;;
11761;SDS011;5938;47.098;15.474;2022-09-25T19:50:26;23.63;;;18.37;;
11761;SDS011;5938;47.098;15.474;2022-09-25T19:54:30;28.13;;;19.60;;
11761;SDS011;5938;47.098;15.474;2022-09-25T19:58:35;32.20;;;21.57;;
11761;SDS011;5938;47.098;15.474;2022-09-25T20:02:42;24.20;;;19.13;;
11761;SDS011;5938;47.098;15.474;2022-09-25T20:06:54;23.57;;;17.30;;
11761;SDS011;5938;47.098;15.474;2022-09-25T20:10:59;20.63;;;16.03;;
11761;SDS011;5938;47.098;15.474;2022-09-25T20:15:11;23.27;;;19.10;;
11761;SDS011;5938;47.098;15.474;2022-09-25T20:19:15;21.27;;;18.60;;
11761;SDS011;5938;47.098;15.474;2022-09-25T20:23:22;22.60;;;17.90;;
11761;SDS011;5938;47.098;15.474;2022-09-25T20:27:26;23.03;;;18.77;;
11761;SDS011;5938;47.098;15.474;2022-09-25T20:31:30;23.50;;;18.63;;
11761;SDS011;5938;47.098;15.474;2022-09-25T20:35:35;23.40;;;18.90;;
11761;SDS011;5938;47.098;15.474;2022-09-25T20:39:41;20.03;;;17.73;;
11761;SDS011;5938;47.098;15.474;2022-09-25T20:43:47;25.10;;;17.70;;
11761;SDS011;5938;47.098;15.474;2022-09-25T20:47:53;19.67;;;17.63;;
11761;SDS011;5938;47.098;15.474;2022-09-25T20:51:57;23.60;;;18.23;;
11761;SDS011;5938;47.098;15.474;2022-09-25T20:56:04;19.40;;;16.03;;
11761;SDS011;5938;47.098;15.474;2022-09-25T21:00:11;23.23;;;16.87;;
11761;SDS011;5938;47.098;15.474;2022-09-25T21:04:19;18.53;;;16.47;;
11761;SDS011;5938;47.098;15.474;2022-09-25T21:08:23;21.10;;;17.47;;
11761;SDS011;5938;47.098;15.474;2022-09-25T21:12:29;20.30;;;18.10;;
11761;SDS011;5938;47.098;15.474;2022-09-25T21:16:32;17.13;;;15.30;;
11761;SDS011;5938;47.098;15.474;2022-09-25T21:20:36;25.70;;;16.40;;
11761;SDS011;5938;47.098;15.474;2022-09-25T21:24:41;20.20;;;17.03;;
11761;SDS011;5938;47.098;15.474;2022-09-25T21:28:46;19.70;;;16.23;;
11761;SDS011;5938;47.098;15.474;2022-09-25T21:32:52;23.37;;;18.33;;
11761;SDS011;5938;47.098;15.474;2022-09-25T21:36:56;19.07;;;17.07;;
11761;SDS011;5938;47.098;15.474;2022-09-25T21:41:01;17.43;;;15.43;;
11761;SDS011;5938;47.098;15.474;2022-09-25T21:45:09;20.97;;;16.57;;
11761;SDS011;5938;47.098;15.474;2022-09-25T21:49:15;18.03;;;14.17;;
11761;SDS011;5938;47.098;15.474;2022-09-25T21:53:20;19.50;;;14.80;;
11761;SDS011;5938;47.098;15.474;2022-09-25T21:57:25;18.20;;;16.30;;
11761;SDS011;5938;47.098;15.474;2022-09-25T22:01:31;18.63;;;14.60;;
11761;SDS011;5938;47.098;15.474;2022-09-25T22:05:37;20.53;;;16.63;;
11761;SDS011;5938;47.098;15.474;2022-09-25T22:09:42;16.47;;;14.50;;
11761;SDS011;5938;47.098;15.474;2022-09-25T22:13:47;15.87;;;14.17;;
11761;SDS011;5938;47.098;15.474;2022-09-25T22:17:53;14.30;;;12.67;;
11761;SDS011;5938;47.098;15.474;2022-09-25T22:21:57;15.47;;;13.93;;
11761;SDS011;5938;47.098;15.474;2022-09-25T22:26:01;19.70;;;17.20;;
11761;SDS011;5938;47.098;15.474;2022-09-25T22:30:05;17.13;;;15.10;;
11761;SDS011;5938;47.098;15.474;2022-09-25T22:34:16;17.43;;;15.10;;
11761;SDS011;5938;47.098;15.474;2022-09-25T22:38:21;15.73;;;13.43;;
11761;SDS011;5938;47.098;15.474;2022-09-25T22:42:24;17.00;;;13.93;;
11761;SDS011;5938;47.098;15.474;2022-09-25T22:46:28;16.20;;;13.63;;
11761;SDS011;5938;47.098;15.474;2022-09-25T22:50:35;20.93;;;15.60;;
11761;SDS011;5938;47.098;15.474;2022-09-25T22:54:39;16.70;;;14.37;;
11761;SDS011;5938;47.098;15.474;2022-09-25T22:58:43;21.03;;;15.93;;
11761;SDS011;5938;47.098;15.474;2022-09-25T23:02:49;17.57;;;14.10;;
11761;SDS011;5938;47.098;15.474;2022-09-25T23:06:58;25.60;;;15.83;;
11761;SDS011;5938;47.098;15.474;2022-09-25T23:11:02;16.87;;;14.50;;
11761;SDS011;5938;47.098;15.474;2022-09-25T23:15:09;18.73;;;14.33;;
11761;SDS011;5938;47.098;15.474;2022-09-25T23:19:13;19.57;;;13.80;;
11761;SDS011;5938;47.098;15.474;2022-09-25T23:23:19;18.60;;;15.03;;
11761;SDS011;5938;47.098;15.474;2022-09-25T23:27:23;25.13;;;16.47;;
11761;SDS011;5938;47.098;15.474;2022-09-25T23:31:27;19.90;;;16.60;;
11761;SDS011;5938;47.098;15.474;2022-09-25T23:35:31;19.87;;;15.37;;
11761;SDS011;5938;47.098;15.474;2022-09-25T23:39:37;19.33;;;15.33;;
11761;SDS011;5938;47.098;15.474;2022-09-25T23:43:41;22.53;;;18.20;;
11761;SDS011;5938;47.098;15.474;2022-09-25T23:47:44;20.60;;;15.30;;
11761;SDS011;5938;47.098;15.474;2022-09-25T23:51:48;20.80;;;15.50;;
11761;SDS011;5938;47.098;15.474;2022-09-25T23:55:54;25.57;;;19.30;;
11761;SDS011;5938;47.098;15.474;2022-09-25T23:59:57;30.23;;;22.23;;
